createdAt,value
2019-05-26T00:04:24.784Z,66.74
2019-05-26T00:10:30.558Z,66.77
2019-05-26T00:16:36.780Z,66.75
2019-05-26T00:22:42.852Z,67.22
2019-05-26T00:28:48.609Z,67.32
2019-05-26T00:34:54.579Z,67.20
2019-05-26T00:41:00.597Z,67.40
2019-05-26T00:47:06.811Z,67.55
2019-05-26T00:53:13.222Z,67.70
2019-05-26T00:59:19.154Z,67.81
2019-05-26T01:05:24.908Z,68.10
2019-05-26T01:11:30.709Z,68.63
2019-05-26T01:17:36.447Z,68.70
2019-05-26T01:23:42.233Z,68.69
2019-05-26T01:29:48.268Z,68.79
2019-05-26T01:35:54.681Z,68.94
2019-05-26T01:42:00.509Z,68.83
2019-05-26T01:48:07.368Z,68.80
2019-05-26T01:54:13.285Z,68.79
2019-05-26T02:00:19.854Z,68.57
2019-05-26T02:06:26.095Z,68.61
2019-05-26T02:12:32.918Z,68.64
2019-05-26T02:18:39.111Z,68.71
2019-05-26T02:24:45.197Z,68.68
2019-05-26T02:30:51.145Z,68.47
2019-05-26T02:36:57.021Z,68.60
2019-05-26T02:43:03.426Z,68.70
2019-05-26T02:49:09.351Z,68.70
2019-05-26T02:55:16.115Z,68.36
2019-05-26T03:01:21.929Z,68.38
2019-05-26T03:07:28.496Z,67.97
2019-05-26T03:13:36.985Z,67.86
2019-05-26T03:19:44.589Z,67.81
2019-05-26T03:25:50.400Z,67.97
2019-05-26T03:31:56.331Z,68.08
2019-05-26T03:38:02.201Z,68.26
2019-05-26T03:44:08.032Z,68.55
2019-05-26T03:50:13.859Z,68.57
2019-05-26T03:56:19.660Z,68.58
2019-05-26T04:02:25.651Z,68.62
2019-05-26T04:08:31.589Z,68.99
2019-05-26T04:14:37.442Z,68.97
2019-05-26T04:20:45.938Z,69.00
2019-05-26T04:26:50.718Z,69.21
2019-05-26T04:32:56.481Z,69.28
2019-05-26T04:39:02.364Z,69.34
2019-05-26T04:45:08.368Z,69.04
2019-05-26T04:51:14.286Z,68.70
2019-05-26T04:57:20.300Z,68.39
2019-05-26T05:03:26.071Z,68.29
2019-05-26T05:09:31.816Z,67.96
2019-05-26T05:15:37.612Z,67.85
2019-05-26T05:21:43.369Z,67.45
2019-05-26T05:27:49.548Z,66.94
2019-05-26T05:33:55.438Z,66.86
2019-05-26T05:40:01.425Z,66.80
2019-05-26T05:46:07.226Z,66.66
2019-05-26T05:52:13.043Z,66.67
2019-05-26T05:58:19.339Z,66.50
2019-05-26T06:04:25.445Z,66.21
2019-05-26T06:10:31.348Z,65.80
2019-05-26T06:16:38.102Z,65.15
2019-05-26T06:22:43.888Z,64.26
2019-05-26T06:28:52.314Z,63.60
2019-05-26T06:34:57.205Z,62.82
2019-05-26T06:41:03.089Z,61.25
2019-05-26T06:47:08.861Z,60.00
2019-05-26T06:53:14.915Z,59.71
2019-05-26T06:59:21.082Z,58.78
2019-05-26T07:05:26.901Z,58.60
2019-05-26T07:11:48.991Z,58.36
2019-05-26T07:17:40.294Z,57.97
2019-05-26T07:23:46.303Z,57.59
2019-05-26T07:29:52.079Z,57.45
2019-05-26T07:35:57.845Z,56.96
2019-05-26T07:42:10.446Z,56.78
2019-05-26T07:48:11.773Z,56.18
2019-05-26T07:54:25.650Z,56.04
2019-05-26T08:00:25.504Z,54.81
2019-05-26T08:06:31.424Z,53.87
2019-05-26T08:12:37.441Z,53.45
2019-05-26T08:18:43.279Z,53.20
2019-05-26T08:24:49.058Z,52.43
2019-05-26T08:30:55.040Z,52.24
2019-05-26T08:37:01.277Z,51.84
2019-05-26T08:43:07.238Z,51.47
2019-05-26T08:49:13.267Z,51.51
2019-05-26T08:55:19.850Z,50.72
2019-05-26T09:01:26.560Z,51.01
2019-05-26T09:07:32.548Z,50.61
2019-05-26T09:13:39.110Z,50.34
2019-05-26T09:19:44.974Z,49.78
2019-05-26T09:25:50.873Z,49.36
2019-05-26T09:31:56.854Z,49.80
2019-05-26T09:38:02.722Z,50.11
2019-05-26T09:44:09.937Z,50.17
2019-05-26T09:50:17.156Z,49.54
2019-05-26T09:56:23.198Z,49.38
2019-05-26T10:02:29.046Z,49.37
2019-05-26T10:08:35.172Z,49.21
2019-05-26T10:14:41.521Z,48.84
2019-05-26T10:20:47.609Z,48.41
2019-05-26T10:26:56.335Z,47.58
2019-05-26T10:33:02.308Z,47.23
2019-05-26T10:39:10.107Z,47.10
2019-05-26T10:45:16.258Z,46.26
2019-05-26T10:51:22.344Z,45.77
2019-05-26T10:57:28.145Z,45.69
2019-05-26T11:03:34.225Z,45.23
2019-05-26T11:09:40.896Z,45.28
2019-05-26T11:15:47.329Z,44.96
2019-05-26T11:21:53.198Z,44.65
2019-05-26T11:27:59.070Z,44.81
2019-05-26T11:34:05.196Z,44.20
2019-05-26T11:40:24.298Z,44.46
2019-05-26T11:46:30.367Z,44.53
2019-05-26T11:52:36.347Z,43.86
2019-05-26T11:58:42.233Z,44.11
2019-05-26T12:04:48.347Z,44.28
2019-05-26T12:10:58.148Z,43.99
2019-05-26T12:17:02.354Z,44.32
2019-05-26T12:23:08.555Z,43.99
2019-05-26T12:29:14.850Z,44.09
2019-05-26T12:35:21.123Z,44.63
2019-05-26T12:41:27.544Z,45.07
2019-05-26T12:47:33.508Z,45.26
2019-05-26T12:53:39.945Z,44.90
2019-05-26T12:59:45.771Z,44.09
2019-05-26T13:05:52.057Z,43.82
2019-05-26T13:11:58.143Z,43.35
2019-05-26T13:18:05.242Z,43.05
2019-05-26T13:24:11.301Z,42.62
2019-05-26T13:30:20.268Z,42.28
2019-05-26T13:36:26.526Z,41.73
2019-05-26T13:42:33.231Z,41.80
2019-05-26T13:48:39.964Z,41.87
2019-05-26T13:54:46.210Z,42.10
2019-05-26T14:00:52.514Z,40.54
2019-05-26T14:07:04.272Z,41.21
2019-05-26T14:13:10.782Z,41.12
2019-05-26T14:19:19.442Z,40.57
2019-05-26T14:25:25.344Z,40.86
2019-05-26T14:31:31.844Z,40.95
2019-05-26T14:37:38.045Z,41.63
2019-05-26T14:43:44.519Z,42.16
2019-05-26T14:49:50.856Z,42.33
2019-05-26T14:55:56.813Z,42.41
2019-05-26T15:02:03.099Z,42.85
2019-05-26T15:08:09.251Z,42.89
2019-05-26T15:14:15.253Z,43.30
2019-05-26T15:20:21.651Z,43.72
2019-05-26T15:26:27.475Z,43.56
2019-05-26T15:32:33.341Z,43.40
2019-05-26T15:38:42.789Z,43.53
2019-05-26T15:44:46.847Z,43.65
2019-05-26T15:50:52.692Z,43.68
2019-05-26T15:56:58.541Z,43.91
2019-05-26T16:03:04.680Z,44.03
2019-05-26T16:09:10.623Z,44.32
2019-05-26T16:15:17.421Z,44.55
2019-05-26T16:21:27.939Z,44.95
2019-05-26T16:27:31.997Z,45.12
2019-05-26T16:33:37.899Z,45.32
2019-05-26T16:39:44.131Z,45.72
2019-05-26T16:45:56.062Z,45.80
2019-05-26T16:51:58.872Z,46.26
2019-05-26T16:58:06.868Z,46.63
2019-05-26T17:04:13.767Z,46.56
2019-05-26T17:10:20.048Z,46.50
2019-05-26T17:16:26.231Z,46.77
2019-05-26T17:22:32.281Z,46.74
2019-05-26T17:28:38.646Z,46.69
2019-05-26T17:34:45.109Z,46.70
2019-05-26T17:40:51.571Z,46.58
2019-05-26T17:46:57.529Z,46.57
2019-05-26T17:53:04.286Z,46.52
2019-05-26T17:59:10.427Z,46.60
2019-05-26T18:05:17.384Z,46.58
2019-05-26T18:11:24.103Z,46.32
2019-05-26T18:17:45.958Z,46.29
2019-05-26T18:23:39.365Z,46.65
2019-05-26T18:29:45.677Z,47.01
2019-05-26T18:35:51.953Z,47.53
2019-05-26T18:41:58.499Z,48.18
2019-05-26T18:48:04.437Z,48.75
2019-05-26T18:54:10.289Z,49.26
2019-05-26T19:00:17.228Z,49.79
2019-05-26T19:06:23.548Z,50.08
2019-05-26T19:12:29.508Z,50.42
2019-05-26T19:18:35.509Z,49.83
2019-05-26T19:24:41.555Z,49.36
2019-05-26T19:30:49.160Z,49.05
2019-05-26T19:36:54.949Z,47.44
2019-05-26T19:43:01.070Z,46.62
2019-05-26T19:49:07.235Z,46.00
2019-05-26T19:55:14.147Z,46.21
2019-05-26T20:01:20.179Z,46.15
2019-05-26T20:07:25.980Z,45.99
2019-05-26T20:13:31.931Z,45.84
2019-05-26T20:19:38.001Z,45.78
2019-05-26T20:25:43.922Z,45.78
2019-05-26T20:31:49.829Z,46.05
2019-05-26T20:37:55.974Z,46.78
2019-05-26T20:44:01.923Z,47.78
2019-05-26T20:50:08.127Z,49.49
2019-05-26T20:56:14.112Z,51.18
2019-05-26T21:02:20.041Z,51.72
2019-05-26T21:08:25.885Z,52.58
2019-05-26T21:14:31.680Z,53.19
2019-05-26T21:20:37.885Z,53.44
2019-05-26T21:26:44.837Z,53.85
2019-05-26T21:32:50.946Z,54.55
2019-05-26T21:38:57.123Z,55.13
2019-05-26T21:45:03.516Z,55.47
2019-05-26T21:51:09.936Z,55.83
2019-05-26T21:57:15.761Z,56.07
2019-05-26T22:03:21.935Z,56.12
2019-05-26T22:09:27.981Z,56.24
2019-05-26T22:15:34.002Z,56.33
2019-05-26T22:21:40.151Z,56.72
2019-05-26T22:27:46.081Z,56.86
2019-05-26T22:33:51.985Z,57.06
2019-05-26T22:39:57.985Z,57.36
2019-05-26T22:46:03.962Z,57.46
2019-05-26T22:52:10.086Z,57.75
2019-05-26T22:58:16.100Z,57.60
2019-05-26T23:04:22.053Z,58.14
2019-05-26T23:10:28.445Z,58.76
2019-05-26T23:16:34.415Z,59.02
2019-05-26T23:22:40.200Z,59.39
2019-05-26T23:28:46.477Z,59.42
2019-05-26T23:34:54.158Z,59.53
2019-05-26T23:41:00.054Z,59.62
2019-05-26T23:47:06.963Z,60.25
2019-05-26T23:53:12.748Z,60.62
2019-05-26T23:59:18.633Z,60.98
